Time;durP1;ratioP1;P1;durP2;ratioP2;P2;SDS_P1;SDS_P2;PMS_P1;PMS_P2;Temp;Humidity;BMP_temperature;BMP_pressure;BME280_temperature;BME280_humidity;BME280_pressure;Samples;Min_cycle;Max_cycle;Signal;HPM_P1;HPM_P2
2022/08/04 00:00:18;;;;;;;19.03;13.97;;;15.90;99.90;;;;;;4351062;28;658833;-62
2022/08/04 00:03:14;;;;;;;19.77;14.90;;;15.80;99.90;;;;;;4359607;28;658419;-63
2022/08/04 00:06:03;;;;;;;20.93;14.60;;;15.80;99.90;;;;;;4327610;28;659337;-62
2022/08/04 00:08:52;;;;;;;17.73;14.60;;;15.80;99.90;;;;;;4353229;28;658764;-62
2022/08/04 00:11:40;;;;;;;19.40;14.30;;;15.80;99.90;;;;;;4365772;28;658605;-64
2022/08/04 00:14:27;;;;;;;23.90;14.57;;;15.80;99.90;;;;;;4369109;28;659109;-62
2022/08/04 00:17:17;;;;;;;21.73;14.90;;;15.80;99.90;;;;;;4366824;28;659154;-63
2022/08/04 00:20:05;;;;;;;18.40;13.60;;;15.80;99.90;;;;;;4368792;28;660705;-63
2022/08/04 00:22:52;;;;;;;19.50;14.13;;;15.80;99.90;;;;;;4349752;28;659567;-63
2022/08/04 00:25:40;;;;;;;20.37;14.07;;;15.80;99.90;;;;;;4367819;28;659152;-62
2022/08/04 00:28:27;;;;;;;24.97;14.50;;;15.80;99.90;;;;;;4352044;28;659650;-62
2022/08/04 00:31:15;;;;;;;16.10;13.53;;;15.80;99.90;;;;;;4369339;28;659393;-61
2022/08/04 00:34:03;;;;;;;21.37;13.90;;;15.90;99.90;;;;;;4344941;28;660957;-62
2022/08/04 00:36:50;;;;;;;19.80;13.77;;;15.90;99.90;;;;;;4348177;28;658801;-62
2022/08/04 00:39:37;;;;;;;16.87;13.87;;;15.80;99.90;;;;;;4368894;28;659254;-62
2022/08/04 00:42:38;;;;;;;17.93;13.90;;;15.70;99.90;;;;;;4365472;28;658921;-64
2022/08/04 00:45:36;;;;;;;22.63;13.53;;;15.70;99.90;;;;;;4337920;28;658982;-63
2022/08/04 00:48:30;;;;;;;17.30;13.70;;;15.70;99.90;;;;;;4347411;28;659688;-61
2022/08/04 00:51:24;;;;;;;19.20;13.20;;;15.80;99.90;;;;;;4350010;28;659211;-62
2022/08/04 00:54:16;;;;;;;20.80;13.63;;;15.80;99.90;;;;;;4323832;28;659335;-63
2022/08/04 00:57:09;;;;;;;18.03;13.30;;;15.80;99.90;;;;;;4347979;28;659547;-61
2022/08/04 01:00:08;;;;;;;18.73;12.47;;;15.80;99.90;;;;;;4348134;28;659452;-62
2022/08/04 01:03:05;;;;;;;16.87;12.97;;;15.80;99.90;;;;;;4331351;28;658673;-63
2022/08/04 01:05:59;;;;;;;19.70;13.63;;;15.80;99.90;;;;;;4345686;28;658450;-63
2022/08/04 01:08:54;;;;;;;16.17;12.30;;;15.80;99.90;;;;;;4350624;28;659222;-62
2022/08/04 01:11:53;;;;;;;20.17;12.13;;;15.80;99.90;;;;;;4318604;28;659371;-63
2022/08/04 01:14:57;;;;;;;16.30;11.60;;;15.80;99.90;;;;;;4315568;28;659335;-64
2022/08/04 01:17:53;;;;;;;16.80;12.10;;;15.80;99.90;;;;;;4332170;28;658966;-62
2022/08/04 01:20:42;;;;;;;18.43;12.20;;;15.80;99.90;;;;;;4324538;28;658577;-63
2022/08/04 01:23:45;;;;;;;16.27;11.33;;;15.80;99.90;;;;;;4367132;28;659314;-61
2022/08/04 01:26:59;;;;;;;16.20;10.47;;;15.90;99.90;;;;;;4321557;28;659828;-62
2022/08/04 01:29:49;;;;;;;17.97;10.33;;;15.90;99.90;;;;;;4343221;28;659426;-62
2022/08/04 01:32:37;;;;;;;15.43;11.03;;;15.90;99.90;;;;;;4347380;28;658620;-62
2022/08/04 01:35:27;;;;;;;16.90;10.07;;;15.90;99.90;;;;;;4364885;28;658281;-63
2022/08/04 01:38:17;;;;;;;14.07;11.33;;;15.80;99.90;;;;;;4347729;28;659286;-61
2022/08/04 01:41:05;;;;;;;15.93;10.67;;;15.80;99.90;;;;;;4343792;28;658746;-62
2022/08/04 01:43:52;;;;;;;18.77;10.93;;;15.80;99.90;;;;;;4341541;28;659991;-62
2022/08/04 01:46:40;;;;;;;13.53;10.60;;;15.70;99.90;;;;;;4359018;28;659665;-62
2022/08/04 01:49:29;;;;;;;18.30;10.40;;;15.70;99.90;;;;;;4346093;28;659050;-62
2022/08/04 01:52:16;;;;;;;12.20;10.43;;;15.60;99.90;;;;;;4351819;28;658897;-63
2022/08/04 01:55:05;;;;;;;16.43;10.40;;;15.50;99.90;;;;;;4368851;28;658768;-62
2022/08/04 01:57:53;;;;;;;17.37;10.57;;;15.50;99.90;;;;;;4333739;28;658486;-62
2022/08/04 02:00:41;;;;;;;15.00;10.93;;;15.60;99.90;;;;;;4341783;28;658692;-62
2022/08/04 02:03:30;;;;;;;12.27;10.37;;;15.50;99.90;;;;;;4366707;28;660521;-62
2022/08/04 02:06:22;;;;;;;13.23;10.90;;;15.60;99.90;;;;;;4348752;28;660257;-63
2022/08/04 02:09:12;;;;;;;19.27;10.63;;;15.60;99.90;;;;;;4364077;28;658597;-64
2022/08/04 02:12:03;;;;;;;11.77;9.57;;;15.60;99.90;;;;;;4371080;28;658790;-62
2022/08/04 02:14:55;;;;;;;10.60;9.50;;;15.50;99.90;;;;;;4326281;28;657909;-63
2022/08/04 02:17:46;;;;;;;16.80;10.10;;;15.60;99.90;;;;;;4339844;28;659857;-62
2022/08/04 02:20:35;;;;;;;15.57;9.57;;;15.50;99.90;;;;;;4343796;28;659344;-62
2022/08/04 02:23:28;;;;;;;12.43;9.97;;;15.50;99.90;;;;;;4349337;28;658969;-63
2022/08/04 02:26:17;;;;;;;12.10;9.67;;;15.50;99.90;;;;;;4349042;28;659295;-63
2022/08/04 02:29:09;;;;;;;13.77;9.57;;;15.50;99.90;;;;;;4368694;28;658193;-62
2022/08/04 02:31:57;;;;;;;13.30;9.80;;;15.40;99.90;;;;;;4348988;28;657777;-63
2022/08/04 02:34:47;;;;;;;15.43;9.57;;;15.40;99.90;;;;;;4367524;28;657671;-64
2022/08/04 02:37:36;;;;;;;18.97;9.90;;;15.40;99.90;;;;;;4343295;28;657911;-63
2022/08/04 02:40:23;;;;;;;14.20;9.57;;;15.40;99.90;;;;;;4339582;28;658119;-62
2022/08/04 02:43:11;;;;;;;12.77;9.87;;;15.30;99.90;;;;;;4341285;28;658198;-63
2022/08/04 02:45:58;;;;;;;14.53;9.83;;;15.30;99.90;;;;;;4369823;28;658776;-63
2022/08/04 02:48:46;;;;;;;15.80;9.70;;;15.30;99.90;;;;;;4353024;28;657417;-64
2022/08/04 02:51:34;;;;;;;18.10;10.20;;;15.40;99.90;;;;;;4366004;28;659386;-62
2022/08/04 02:54:25;;;;;;;13.20;9.70;;;15.40;99.90;;;;;;4348314;28;658927;-62
2022/08/04 02:57:12;;;;;;;13.43;10.20;;;15.40;99.90;;;;;;4344907;28;658974;-62
2022/08/04 03:00:05;;;;;;;15.70;10.60;;;15.40;99.90;;;;;;4360942;28;658471;-64
2022/08/04 03:02:56;;;;;;;20.70;10.20;;;15.40;99.90;;;;;;4344653;28;659645;-64
2022/08/04 03:05:58;;;;;;;15.37;10.07;;;15.40;99.90;;;;;;4343911;28;659000;-63
2022/08/04 03:09:17;;;;;;;14.73;10.70;;;15.30;99.90;;;;;;4331317;28;659238;-64
2022/08/04 03:12:30;;;;;;;15.37;10.10;;;15.30;99.90;;;;;;4342333;28;659906;-63
2022/08/04 03:15:29;;;;;;;11.77;9.43;;;15.30;99.90;;;;;;4348701;28;659465;-63
2022/08/04 03:18:55;;;;;;;15.57;11.03;;;15.30;99.90;;;;;;4348086;28;656955;-63
2022/08/04 03:22:06;;;;;;;19.33;9.90;;;15.30;99.90;;;;;;4315459;28;659135;-63
2022/08/04 03:25:13;;;;;;;17.53;10.10;;;15.20;99.90;;;;;;4346214;28;658223;-65
2022/08/04 03:28:17;;;;;;;15.37;9.77;;;15.30;99.90;;;;;;4330222;28;659138;-64
2022/08/04 03:31:23;;;;;;;21.83;10.60;;;15.30;99.90;;;;;;4343546;28;657906;-64
2022/08/04 03:34:21;;;;;;;14.47;10.20;;;15.30;99.90;;;;;;4329436;28;659132;-64
2022/08/04 03:37:38;;;;;;;16.07;9.77;;;15.30;99.90;;;;;;4350893;28;659662;-63
2022/08/04 03:40:34;;;;;;;19.80;10.07;;;15.30;99.90;;;;;;4324477;28;658272;-63
2022/08/04 03:43:51;;;;;;;15.33;9.43;;;15.30;99.90;;;;;;4355235;28;658722;-63
2022/08/04 03:47:13;;;;;;;16.60;9.97;;;15.40;99.90;;;;;;4344433;28;657812;-63
2022/08/04 03:50:33;;;;;;;10.80;9.17;;;15.40;99.90;;;;;;4330603;28;658582;-64
2022/08/04 03:53:36;;;;;;;13.93;10.10;;;15.40;99.90;;;;;;4309999;28;658141;-63
2022/08/04 03:56:32;;;;;;;16.67;9.20;;;15.40;99.90;;;;;;4352046;28;658880;-63
2022/08/04 03:59:37;;;;;;;18.80;9.67;;;15.50;99.90;;;;;;4345462;28;657505;-63
2022/08/04 04:02:58;;;;;;;18.07;9.37;;;15.60;99.90;;;;;;4344980;28;657390;-63
2022/08/04 04:06:10;;;;;;;11.97;8.93;;;15.60;99.90;;;;;;4327383;28;657686;-64
2022/08/04 04:09:27;;;;;;;11.20;8.90;;;15.70;99.90;;;;;;4321686;28;658026;-63
2022/08/04 04:12:52;;;;;;;11.97;8.60;;;15.70;99.90;;;;;;4343397;28;657543;-64
2022/08/04 04:16:03;;;;;;;13.37;8.80;;;15.80;99.90;;;;;;4317293;28;657368;-64
2022/08/04 04:19:14;;;;;;;11.40;8.73;;;15.90;99.90;;;;;;4326388;28;658342;-63
2022/08/04 04:22:11;;;;;;;13.00;8.53;;;16.00;99.90;;;;;;4317724;28;658870;-63
2022/08/04 04:25:09;;;;;;;11.00;8.90;;;16.10;99.90;;;;;;4343576;28;657943;-63
2022/08/04 04:28:10;;;;;;;11.80;8.50;;;16.20;99.90;;;;;;4345443;28;657515;-63
2022/08/04 04:31:03;;;;;;;14.50;9.20;;;16.40;99.90;;;;;;4326466;28;658469;-64
2022/08/04 04:33:54;;;;;;;12.35;8.48;;;16.60;99.90;;;;;;4343581;28;657460;-64
2022/08/04 04:36:48;;;;;;;13.13;8.70;;;16.60;99.90;;;;;;4348304;28;657643;-63
2022/08/04 04:39:39;;;;;;;12.87;8.00;;;16.70;99.90;;;;;;4327040;28;658958;-64
2022/08/04 04:42:36;;;;;;;11.47;8.80;;;16.90;99.90;;;;;;4350303;28;657553;-63
2022/08/04 04:45:25;;;;;;;11.10;8.97;;;17.00;99.90;;;;;;4349046;28;658042;-63
2022/08/04 04:48:17;;;;;;;11.77;8.37;;;17.10;99.90;;;;;;4344553;28;658960;-65
2022/08/04 04:51:09;;;;;;;14.70;8.07;;;17.30;99.90;;;;;;4342964;28;658084;-63
2022/08/04 04:53:58;;;;;;;12.47;8.00;;;17.40;99.90;;;;;;4324026;28;658571;-64
2022/08/04 04:56:47;;;;;;;16.20;8.17;;;17.50;99.90;;;;;;4352512;28;657688;-65
2022/08/04 04:59:34;;;;;;;9.67;8.30;;;17.70;99.90;;;;;;4370300;28;657718;-63
2022/08/04 05:02:45;;;;;;;11.60;7.67;;;17.90;99.90;;;;;;4351260;28;656840;-64
2022/08/04 05:05:58;;;;;;;11.30;8.17;;;18.10;99.90;;;;;;4347522;28;657900;-63
2022/08/04 05:08:53;;;;;;;11.30;8.03;;;18.20;99.90;;;;;;4326291;28;658260;-64
2022/08/04 05:12:03;;;;;;;10.03;7.23;;;18.40;99.90;;;;;;4330611;28;657799;-64
2022/08/04 05:14:50;;;;;;;11.53;7.83;;;18.50;99.90;;;;;;4334601;28;657443;-65
2022/08/04 05:17:40;;;;;;;13.03;7.60;;;18.60;99.90;;;;;;4371428;28;657795;-64
2022/08/04 05:20:29;;;;;;;10.60;7.40;;;18.80;99.90;;;;;;4355313;28;658770;-63
2022/08/04 05:23:19;;;;;;;10.93;7.80;;;18.90;99.90;;;;;;4352556;28;658200;-64
2022/08/04 05:26:10;;;;;;;10.13;6.90;;;18.90;99.90;;;;;;4349914;28;657906;-63
2022/08/04 05:28:58;;;;;;;13.63;6.97;;;19.10;99.90;;;;;;4354953;28;658628;-64
2022/08/04 05:31:48;;;;;;;8.93;6.90;;;19.20;99.90;;;;;;4365180;28;658180;-64
2022/08/04 05:34:39;;;;;;;8.90;7.03;;;19.30;99.90;;;;;;4353399;28;656411;-64
2022/08/04 05:37:26;;;;;;;11.20;6.63;;;19.50;99.90;;;;;;4357482;28;657009;-63
2022/08/04 05:40:15;;;;;;;11.60;6.50;;;19.70;99.90;;;;;;4373757;28;658626;-63
2022/08/04 05:43:02;;;;;;;8.47;6.37;;;19.80;99.90;;;;;;4352229;28;658279;-63
2022/08/04 05:45:49;;;;;;;7.30;6.00;;;20.00;99.90;;;;;;4371068;28;657249;-63
2022/08/04 05:48:36;;;;;;;6.63;5.40;;;20.10;99.90;;;;;;4346994;28;656816;-64
2022/08/04 05:51:24;;;;;;;10.23;5.77;;;20.30;99.90;;;;;;4377012;28;657445;-64
2022/08/04 05:54:11;;;;;;;7.70;5.40;;;20.60;99.90;;;;;;4354694;28;657627;-63
2022/08/04 05:56:59;;;;;;;8.93;5.72;;;20.70;99.90;;;;;;4372800;28;656942;-64
2022/08/04 05:59:47;;;;;;;7.60;5.47;;;20.90;99.90;;;;;;4356340;28;657151;-64
2022/08/04 06:02:34;;;;;;;8.27;5.67;;;21.10;99.90;;;;;;4373506;28;657250;-64
2022/08/04 06:05:21;;;;;;;10.60;5.37;;;21.30;99.90;;;;;;4352046;28;657479;-64
2022/08/04 06:08:08;;;;;;;14.03;5.30;;;21.40;99.90;;;;;;4370321;28;659353;-64
2022/08/04 06:10:55;;;;;;;7.20;4.97;;;21.50;99.90;;;;;;4348430;28;658478;-64
2022/08/04 06:13:47;;;;;;;10.70;5.27;;;21.60;99.90;;;;;;4369033;28;657675;-64
2022/08/04 06:16:36;;;;;;;6.90;4.73;;;21.70;99.90;;;;;;4343491;28;657937;-64
2022/08/04 06:19:23;;;;;;;8.10;4.83;;;21.80;99.90;;;;;;4351478;28;657797;-64
2022/08/04 06:22:10;;;;;;;7.53;4.80;;;22.00;99.90;;;;;;4347649;28;656455;-65
2022/08/04 06:24:57;;;;;;;7.70;4.80;;;22.10;99.90;;;;;;4370928;28;657403;-64
2022/08/04 06:27:45;;;;;;;8.23;4.80;;;22.30;99.90;;;;;;4368355;28;656018;-65
2022/08/04 06:30:34;;;;;;;7.30;5.00;;;22.40;99.90;;;;;;4371091;28;656448;-63
2022/08/04 06:33:26;;;;;;;6.83;4.40;;;22.50;99.90;;;;;;4351938;28;656733;-64
2022/08/04 06:36:13;;;;;;;6.30;4.40;;;22.60;99.90;;;;;;4339515;28;656914;-64
2022/08/04 06:39:00;;;;;;;5.50;4.50;;;22.70;99.90;;;;;;4341995;28;656247;-65
2022/08/04 06:41:47;;;;;;;7.03;4.50;;;22.80;99.90;;;;;;4377155;28;656083;-63
2022/08/04 06:44:34;;;;;;;9.57;4.50;;;23.00;99.90;;;;;;4361254;28;656909;-64
2022/08/04 06:47:23;;;;;;;6.83;4.43;;;23.10;99.90;;;;;;4344751;28;657178;-64
2022/08/04 06:50:10;;;;;;;5.35;4.47;;;23.20;99.90;;;;;;4361774;28;656531;-65
2022/08/04 06:52:57;;;;;;;5.27;4.23;;;23.40;99.90;;;;;;4367595;28;657912;-64
2022/08/04 06:55:46;;;;;;;6.23;3.97;;;23.40;99.90;;;;;;4364706;28;656470;-65
2022/08/04 06:58:33;;;;;;;6.07;4.53;;;23.50;99.90;;;;;;4375497;28;656790;-64
2022/08/04 07:01:21;;;;;;;6.87;4.13;;;23.70;99.90;;;;;;4351864;28;656904;-64
2022/08/04 07:04:10;;;;;;;5.40;4.10;;;23.90;99.90;;;;;;4366670;28;657455;-64
2022/08/04 07:06:57;;;;;;;5.53;4.30;;;24.00;99.90;;;;;;4358497;28;657263;-63
2022/08/04 07:09:44;;;;;;;5.13;4.50;;;24.20;99.90;;;;;;4380467;28;657066;-64
2022/08/04 07:12:31;;;;;;;9.87;4.50;;;24.30;99.90;;;;;;4362182;28;656208;-64
2022/08/04 07:15:19;;;;;;;9.63;4.10;;;24.30;99.70;;;;;;4379270;28;656602;-64
2022/08/04 07:18:06;;;;;;;8.93;4.65;;;24.40;99.30;;;;;;4360168;28;657448;-64
2022/08/04 07:20:54;;;;;;;6.73;4.23;;;24.60;99.90;;;;;;4383339;28;656261;-64
2022/08/04 07:23:41;;;;;;;8.95;4.75;;;24.80;97.00;;;;;;4358392;28;658091;-64
2022/08/04 07:26:28;;;;;;;8.00;4.22;;;24.80;96.50;;;;;;4374835;28;657445;-64
2022/08/04 07:29:15;;;;;;;8.52;4.40;;;25.00;96.70;;;;;;4352533;28;656762;-64
2022/08/04 07:32:03;;;;;;;7.75;4.07;;;25.20;96.00;;;;;;4379347;28;658433;-64
2022/08/04 07:34:50;;;;;;;7.82;4.13;;;25.40;95.20;;;;;;4344402;28;657322;-65
2022/08/04 07:37:39;;;;;;;6.50;3.70;;;25.60;95.40;;;;;;4369952;28;658552;-64
2022/08/04 07:40:27;;;;;;;8.02;3.92;;;25.60;92.50;;;;;;4346759;28;656690;-64
2022/08/04 07:43:15;;;;;;;7.88;4.00;;;25.80;93.60;;;;;;4369793;28;656604;-64
2022/08/04 07:46:02;;;;;;;8.63;3.90;;;25.90;90.40;;;;;;4344952;28;657271;-64
2022/08/04 07:48:49;;;;;;;6.60;3.65;;;25.90;91.00;;;;;;4370729;28;656530;-65
2022/08/04 07:51:36;;;;;;;7.50;3.88;;;25.60;88.40;;;;;;4354804;28;656689;-64
2022/08/04 07:54:25;;;;;;;7.18;3.90;;;25.80;90.10;;;;;;4371418;28;657815;-65
2022/08/04 07:57:12;;;;;;;10.32;3.53;;;26.10;90.50;;;;;;4347104;28;657780;-64
2022/08/04 07:59:59;;;;;;;7.80;3.25;;;26.20;84.80;;;;;;4366121;28;658668;-64
2022/08/04 08:02:48;;;;;;;7.90;4.05;;;26.20;88.00;;;;;;4349261;28;656753;-64
2022/08/04 08:05:35;;;;;;;6.47;3.40;;;26.50;84.50;;;;;;4353391;28;656911;-65
2022/08/04 08:08:22;;;;;;;4.43;3.10;;;26.50;81.10;;;;;;4367418;28;657020;-64
2022/08/04 08:11:11;;;;;;;4.90;3.20;;;26.70;82.00;;;;;;4367877;28;656682;-64
2022/08/04 08:13:58;;;;;;;7.80;3.53;;;26.80;78.30;;;;;;4344750;28;657359;-64
2022/08/04 08:16:45;;;;;;;9.98;3.60;;;26.70;76.50;;;;;;4357115;28;656561;-65
2022/08/04 08:19:33;;;;;;;7.18;3.63;;;26.80;76.20;;;;;;4368377;28;657532;-64
2022/08/04 08:22:20;;;;;;;5.22;3.25;;;27.00;76.40;;;;;;4355455;28;656409;-65
2022/08/04 08:25:08;;;;;;;10.88;3.17;;;27.20;75.50;;;;;;4368335;28;657884;-65
2022/08/04 08:27:57;;;;;;;4.53;3.00;;;27.30;73.50;;;;;;4350361;28;657446;-64
2022/08/04 08:30:44;;;;;;;8.18;3.28;;;27.40;72.60;;;;;;4372690;28;656907;-64
2022/08/04 08:33:31;;;;;;;5.53;3.38;;;27.50;72.00;;;;;;4349092;28;656795;-64
2022/08/04 08:36:20;;;;;;;5.93;3.27;;;27.80;72.30;;;;;;4372726;28;658160;-64
2022/08/04 08:39:12;;;;;;;4.22;2.35;;;27.80;69.40;;;;;;4346502;28;656985;-65
2022/08/04 08:42:22;;;;;;;5.40;2.70;;;28.10;70.30;;;;;;4346213;28;657167;-65
2022/08/04 08:45:24;;;;;;;4.10;2.70;;;28.10;67.00;;;;;;4346989;28;657511;-65
2022/08/04 08:48:32;;;;;;;3.70;2.60;;;28.10;64.90;;;;;;4354565;28;656276;-64
2022/08/04 08:51:49;;;;;;;5.22;2.42;;;28.00;63.90;;;;;;4349614;28;657055;-64
2022/08/04 08:54:53;;;;;;;4.70;2.67;;;28.00;66.70;;;;;;4326434;28;656727;-64
2022/08/04 08:57:47;;;;;;;5.70;2.35;;;28.20;62.50;;;;;;4320430;28;656461;-65
2022/08/04 09:00:41;;;;;;;4.18;2.50;;;28.50;62.00;;;;;;4343945;28;656283;-65
2022/08/04 09:03:54;;;;;;;4.40;2.50;;;28.60;58.60;;;;;;4349913;28;656867;-65
2022/08/04 09:07:07;;;;;;;7.07;2.67;;;28.50;58.20;;;;;;4351861;28;656432;-64
2022/08/04 09:10:05;;;;;;;3.88;2.40;;;28.30;63.50;;;;;;4350542;28;656472;-64
2022/08/04 09:12:54;;;;;;;2.50;2.30;;;28.30;58.90;;;;;;4327477;28;657630;-64
2022/08/04 09:15:47;;;;;;;3.03;2.60;;;28.50;58.50;;;;;;4354468;28;657677;-64
2022/08/04 09:18:36;;;;;;;3.60;2.78;;;28.60;58.90;;;;;;4341028;28;656739;-64
2022/08/04 09:21:25;;;;;;;6.53;2.75;;;28.70;56.60;;;;;;4343288;28;656804;-64
2022/08/04 09:24:14;;;;;;;14.15;2.70;;;28.70;57.40;;;;;;4346891;28;658066;-64
2022/08/04 09:27:02;;;;;;;3.38;2.70;;;28.90;59.10;;;;;;4352620;28;657275;-64
2022/08/04 09:29:53;;;;;;;5.93;2.90;;;29.30;57.50;;;;;;4379345;28;657409;-65
2022/08/04 09:32:59;;;;;;;3.20;2.78;;;29.50;58.10;;;;;;4332928;28;657360;-64
2022/08/04 09:35:48;;;;;;;5.30;2.97;;;29.60;56.50;;;;;;4354196;28;656401;-66
2022/08/04 09:38:40;;;;;;;4.57;2.95;;;29.40;59.70;;;;;;4353061;28;656783;-65
2022/08/04 09:41:31;;;;;;;5.82;3.50;;;29.60;59.00;;;;;;4353524;28;657699;-66
2022/08/04 09:44:25;;;;;;;8.85;3.20;;;29.60;57.90;;;;;;4345904;28;657300;-65
2022/08/04 09:47:15;;;;;;;3.70;2.90;;;29.60;59.60;;;;;;4325439;28;657662;-64
2022/08/04 09:50:08;;;;;;;6.90;3.53;;;29.70;57.70;;;;;;4351077;28;656989;-64
2022/08/04 09:52:58;;;;;;;4.95;3.30;;;29.70;56.80;;;;;;4331186;28;656781;-65
2022/08/04 09:55:50;;;;;;;5.10;3.20;;;29.90;59.40;;;;;;4355153;28;656721;-65
2022/08/04 09:58:44;;;;;;;5.88;3.63;;;30.10;58.40;;;;;;4348152;28;656581;-64
2022/08/04 10:01:31;;;;;;;5.20;3.80;;;30.60;59.50;;;;;;4313641;28;657565;-64
2022/08/04 10:04:18;;;;;;;4.38;3.30;;;30.50;58.40;;;;;;4367636;28;657214;-64
2022/08/04 10:07:16;;;;;;;6.07;3.58;;;30.30;57.90;;;;;;4341468;28;656908;-64
2022/08/04 10:10:15;;;;;;;6.57;3.50;;;30.20;57.10;;;;;;4345908;28;657035;-64
2022/08/04 10:13:15;;;;;;;4.75;3.55;;;30.50;58.30;;;;;;4326175;28;657475;-65
2022/08/04 10:16:35;;;;;;;6.07;3.25;;;30.80;57.60;;;;;;4350011;28;657319;-65
2022/08/04 10:19:25;;;;;;;7.90;3.55;;;30.80;54.70;;;;;;4319485;28;657192;-64
2022/08/04 10:22:17;;;;;;;9.35;3.42;;;30.80;57.50;;;;;;4344997;28;656795;-64
2022/08/04 10:25:09;;;;;;;7.35;3.15;;;31.10;57.00;;;;;;4344477;28;656969;-65
2022/08/04 10:27:58;;;;;;;6.63;3.10;;;30.50;57.00;;;;;;4331214;28;656874;-64
2022/08/04 10:30:49;;;;;;;4.05;2.90;;;30.70;56.20;;;;;;4343829;28;656578;-65
2022/08/04 10:33:39;;;;;;;8.85;2.75;;;30.90;54.00;;;;;;4344772;28;656568;-64
2022/08/04 10:36:28;;;;;;;3.10;2.80;;;31.00;53.50;;;;;;4342552;28;656754;-64
2022/08/04 10:39:19;;;;;;;6.70;2.70;;;31.00;52.50;;;;;;4347722;28;656637;-65
2022/08/04 10:42:12;;;;;;;3.83;2.80;;;31.00;52.80;;;;;;4349147;28;656263;-64
2022/08/04 10:45:05;;;;;;;5.03;2.67;;;31.30;53.10;;;;;;4349663;28;656618;-64
2022/08/04 10:47:57;;;;;;;6.47;2.72;;;31.20;52.60;;;;;;4345853;28;657352;-64
2022/08/04 10:50:48;;;;;;;7.50;3.30;;;31.10;52.20;;;;;;4341135;28;656418;-64
2022/08/04 10:53:35;;;;;;;5.65;2.67;;;31.10;55.10;;;;;;4328397;28;657585;-65
2022/08/04 10:56:28;;;;;;;4.03;2.60;;;31.00;52.70;;;;;;4371080;28;656836;-64
2022/08/04 10:59:18;;;;;;;4.30;2.42;;;31.20;52.70;;;;;;4326357;28;656905;-65
2022/08/04 11:02:12;;;;;;;4.32;2.88;;;31.30;52.70;;;;;;4349737;28;656479;-64
2022/08/04 11:05:03;;;;;;;5.88;2.70;;;31.10;51.20;;;;;;4349847;28;656865;-64
2022/08/04 11:07:52;;;;;;;3.33;3.00;;;31.40;51.50;;;;;;4350468;28;656282;-66
2022/08/04 11:10:42;;;;;;;9.65;2.85;;;31.70;52.30;;;;;;4371973;28;657237;-64
2022/08/04 11:13:34;;;;;;;5.05;2.53;;;32.00;50.80;;;;;;4344798;28;656869;-64
2022/08/04 11:16:22;;;;;;;4.25;2.63;;;31.90;51.80;;;;;;4324712;28;657794;-64
2022/08/04 11:19:20;;;;;;;6.70;3.05;;;31.90;51.70;;;;;;4364730;28;656500;-65
2022/08/04 11:22:10;;;;;;;3.75;2.50;;;31.60;52.00;;;;;;4338606;28;656666;-65
2022/08/04 11:25:04;;;;;;;3.33;2.55;;;31.70;51.30;;;;;;4339429;28;657041;-64
2022/08/04 11:27:55;;;;;;;5.00;2.55;;;32.10;50.40;;;;;;4344745;28;656498;-64
2022/08/04 11:30:47;;;;;;;6.25;2.83;;;31.50;51.50;;;;;;4347372;28;657970;-64
2022/08/04 11:33:41;;;;;;;3.22;2.60;;;31.90;50.50;;;;;;4337760;28;656735;-64
2022/08/04 11:36:32;;;;;;;3.05;2.53;;;32.40;50.80;;;;;;4337072;28;656771;-65
2022/08/04 11:39:25;;;;;;;7.00;2.95;;;32.40;50.80;;;;;;4337889;28;656285;-64
2022/08/04 11:42:15;;;;;;;8.05;2.80;;;32.40;50.00;;;;;;4322546;28;656702;-64
2022/08/04 11:45:04;;;;;;;3.00;2.70;;;32.40;52.90;;;;;;4345918;28;657956;-64
2022/08/04 11:47:55;;;;;;;3.15;2.83;;;32.70;51.00;;;;;;4347778;28;656427;-65
2022/08/04 11:50:44;;;;;;;4.82;2.83;;;32.80;50.10;;;;;;4347065;28;657654;-64
2022/08/04 11:53:32;;;;;;;5.78;2.67;;;32.90;49.40;;;;;;4337567;28;656856;-64
2022/08/04 11:56:19;;;;;;;9.75;3.03;;;31.90;50.10;;;;;;4355812;28;656111;-64
2022/08/04 11:59:07;;;;;;;3.15;2.85;;;32.00;51.80;;;;;;4342190;28;656525;-64
2022/08/04 12:02:02;;;;;;;6.38;3.10;;;32.40;49.70;;;;;;4354100;28;656259;-65
2022/08/04 12:04:55;;;;;;;4.77;2.97;;;33.00;50.20;;;;;;4334151;28;657925;-64
2022/08/04 12:07:49;;;;;;;3.83;2.80;;;33.40;48.60;;;;;;4297228;28;656966;-64
2022/08/04 12:10:40;;;;;;;3.58;2.67;;;33.20;47.30;;;;;;4302586;28;656771;-65
2022/08/04 12:13:33;;;;;;;3.07;2.63;;;33.30;45.80;;;;;;4318479;28;657284;-66
2022/08/04 12:16:22;;;;;;;7.53;3.00;;;33.00;47.30;;;;;;4302883;28;656970;-65
2022/08/04 12:19:12;;;;;;;4.10;2.90;;;33.10;48.60;;;;;;4340820;28;656195;-64
2022/08/04 12:22:04;;;;;;;8.95;3.03;;;33.20;48.00;;;;;;4329059;28;656626;-66
2022/08/04 12:24:53;;;;;;;8.52;2.80;;;33.30;48.60;;;;;;4334648;28;656163;-64
2022/08/04 12:27:42;;;;;;;5.47;2.63;;;33.30;47.90;;;;;;4329054;28;656550;-65
2022/08/04 12:30:31;;;;;;;4.20;3.10;;;33.30;47.00;;;;;;4363089;28;656821;-65
2022/08/04 12:33:21;;;;;;;5.03;3.08;;;33.40;46.30;;;;;;4320689;28;657152;-65
2022/08/04 12:36:16;;;;;;;4.50;3.20;;;33.40;46.30;;;;;;4323906;28;657357;-64
2022/08/04 12:39:09;;;;;;;8.07;3.08;;;33.20;47.20;;;;;;4330032;28;657266;-64
2022/08/04 12:42:01;;;;;;;4.95;2.80;;;33.30;47.90;;;;;;4335194;28;656208;-65
2022/08/04 12:44:52;;;;;;;7.10;3.20;;;33.20;48.10;;;;;;4334148;28;657195;-65
2022/08/04 12:47:40;;;;;;;5.15;3.25;;;32.50;49.10;;;;;;4318779;28;656723;-66
2022/08/04 12:50:27;;;;;;;6.28;3.17;;;32.90;49.40;;;;;;4355333;28;657558;-64
2022/08/04 12:53:15;;;;;;;7.47;3.20;;;33.00;48.90;;;;;;4376370;28;656838;-65
2022/08/04 12:56:04;;;;;;;8.23;3.10;;;33.30;47.90;;;;;;4364448;28;656264;-64
2022/08/04 12:58:52;;;;;;;7.70;2.90;;;33.00;48.20;;;;;;4351266;28;656499;-64
2022/08/04 13:01:39;;;;;;;8.25;3.17;;;32.90;48.20;;;;;;4363670;28;656727;-65
2022/08/04 13:04:26;;;;;;;4.10;3.03;;;33.20;47.20;;;;;;4345005;28;656636;-64
2022/08/04 13:07:15;;;;;;;5.57;3.03;;;33.30;48.10;;;;;;4367496;28;656579;-64
2022/08/04 13:10:05;;;;;;;3.05;2.67;;;33.50;47.60;;;;;;4343874;28;658079;-64
2022/08/04 13:12:56;;;;;;;5.95;2.88;;;33.70;47.50;;;;;;4347805;28;657465;-64
2022/08/04 13:15:43;;;;;;;6.85;2.85;;;33.90;48.30;;;;;;4336621;28;657752;-65
2022/08/04 13:18:31;;;;;;;9.20;3.08;;;33.50;47.00;;;;;;4341158;28;656486;-65
2022/08/04 13:21:20;;;;;;;9.68;2.80;;;33.70;46.40;;;;;;4363884;28;657042;-64
2022/08/04 13:24:10;;;;;;;4.82;2.70;;;33.90;46.50;;;;;;4339303;28;657334;-65
2022/08/04 13:26:58;;;;;;;4.47;2.88;;;33.30;47.10;;;;;;4347762;28;657356;-64
2022/08/04 13:29:47;;;;;;;6.32;2.95;;;33.00;50.30;;;;;;4348370;28;657074;-64
2022/08/04 13:32:34;;;;;;;4.68;2.97;;;32.30;48.20;;;;;;4374519;28;656110;-65
2022/08/04 13:35:21;;;;;;;8.23;2.90;;;32.30;50.90;;;;;;4355424;28;656810;-65
2022/08/04 13:38:09;;;;;;;10.93;2.97;;;32.70;50.00;;;;;;4372054;28;657382;-64
2022/08/04 13:40:56;;;;;;;4.13;2.75;;;33.10;47.10;;;;;;4350081;28;657711;-64
2022/08/04 13:43:44;;;;;;;5.28;2.80;;;33.20;47.50;;;;;;4372533;28;657808;-64
2022/08/04 13:46:35;;;;;;;3.55;2.95;;;32.80;48.10;;;;;;4348315;28;657512;-64
2022/08/04 13:49:22;;;;;;;6.15;2.60;;;33.20;47.30;;;;;;4347802;28;657723;-64
2022/08/04 13:52:09;;;;;;;11.32;3.20;;;33.40;47.40;;;;;;4361904;28;656556;-64
2022/08/04 13:54:56;;;;;;;5.15;2.90;;;33.20;46.90;;;;;;4332932;28;657987;-64
2022/08/04 13:57:44;;;;;;;9.90;3.00;;;33.30;47.00;;;;;;4348174;28;657725;-64
2022/08/04 14:00:46;;;;;;;3.95;2.90;;;33.20;46.40;;;;;;4329535;28;656703;-64
2022/08/04 14:03:36;;;;;;;5.80;3.07;;;33.30;46.30;;;;;;4330073;28;659508;-64
2022/08/04 14:06:24;;;;;;;5.20;2.50;;;33.60;44.60;;;;;;4327539;28;657637;-64
2022/08/04 14:09:14;;;;;;;6.35;3.00;;;33.90;45.70;;;;;;4332694;28;656703;-64
2022/08/04 14:12:06;;;;;;;3.27;2.60;;;33.70;45.50;;;;;;4351236;28;656466;-64
2022/08/04 14:14:53;;;;;;;6.60;2.90;;;33.90;44.90;;;;;;4344553;28;657871;-64
2022/08/04 14:17:40;;;;;;;6.75;2.85;;;33.80;46.20;;;;;;4344307;28;656395;-65
2022/08/04 14:20:29;;;;;;;5.47;2.90;;;33.90;44.60;;;;;;4371322;28;656209;-64
2022/08/04 14:23:16;;;;;;;7.85;2.72;;;33.90;46.60;;;;;;4343282;28;656553;-64
2022/08/04 14:26:14;;;;;;;6.97;3.10;;;33.20;46.70;;;;;;4376102;28;658064;-63
2022/08/04 14:29:08;;;;;;;6.28;2.92;;;33.60;45.40;;;;;;4353742;28;656275;-64
2022/08/04 14:32:00;;;;;;;5.00;2.77;;;33.80;44.80;;;;;;4331424;28;656384;-65
2022/08/04 14:34:47;;;;;;;8.63;2.65;;;33.90;46.60;;;;;;4353786;28;657220;-64
2022/08/04 14:37:36;;;;;;;10.30;2.90;;;34.30;46.80;;;;;;4368495;28;656551;-64